Terminal Aerodrome Forecast
Issued by NWS

Home | Current Version | Previous Version | Graphics & Text | Print | Product List | Glossary On
Versions: 1 2 3 4 5 6 7 8 9 10 11 12 13 14 15 16 17 18 19
000
FTUS43 KICT 200708 AAB
TAFSLN
TAF AMD
KSLN 200708Z 2007/2106 34013KT 6SM BR SCT010 OVC017
      TEMPO 2007/2010 4SM -SN BR OVC008
     FM201000 01013KT P6SM OVC008
     FM201200 35017G22KT P6SM SCT010 OVC025
     FM201600 35017G22KT P6SM SCT030 BKN050=

USA.gov is the U.S. government's official web portal to all federal, state and local government web resources and services.